Terminal Aerodrome Forecast
Issued by NWS

Home | Current Version | Previous Version | Text Only | Print | Product List | Glossary On
Versions: 1 2 3 4 5 6 7 8 9 10 11 12 13 14
000
FTUS43 KFGF 032300
TAFTVF
TAF
KTVF 032335Z 0400/0424 29016G25KT 5SM -SN FEW006 BKN015
     FM040100 29014G23KT P6SM SCT015 BKN025
     FM040400 29011KT P6SM SCT250
     FM041800 30014KT P6SM BKN035
      AMD LTD TO CLD VIS AND WIND=

USA.gov is the U.S. government's official web portal to all federal, state and local government web resources and services.